createdAt,value
2022-07-29T00:02:10.902Z,100904.62
2022-07-29T00:04:39.421Z,100905.84
2022-07-29T00:07:07.805Z,100904.09
2022-07-29T00:09:42.004Z,100904.62
2022-07-29T00:12:26.481Z,100904.97
2022-07-29T00:14:56.417Z,100902.50
2022-07-29T00:17:26.056Z,100903.36
2022-07-29T00:19:54.332Z,100903.52
2022-07-29T00:22:22.669Z,100905.29
2022-07-29T00:24:51.892Z,100905.29
2022-07-29T00:27:20.143Z,100904.94
2022-07-29T00:29:48.838Z,100914.27
2022-07-29T00:32:17.231Z,100912.34
2022-07-29T00:35:04.313Z,100912.18
2022-07-29T00:37:32.823Z,100911.83
2022-07-29T00:40:01.643Z,100911.15
2022-07-29T00:42:29.948Z,100909.56
2022-07-29T00:44:58.374Z,100910.10
2022-07-29T00:47:26.594Z,100911.17
2022-07-29T00:49:54.929Z,100902.56
2022-07-29T00:52:23.722Z,100899.39
2022-07-29T00:54:51.971Z,100895.54
2022-07-29T00:57:21.305Z,100897.11
2022-07-29T00:59:49.702Z,100897.82
2022-07-29T01:02:18.006Z,100894.65
2022-07-29T01:04:46.860Z,100892.55
2022-07-29T01:07:15.993Z,100892.01
2022-07-29T01:09:47.249Z,100895.35
2022-07-29T01:12:24.533Z,100897.97
2022-07-29T01:14:54.665Z,100902.54
2022-07-29T01:17:38.448Z,100902.89
2022-07-29T01:20:24.108Z,100896.75
2022-07-29T01:23:12.298Z,100904.30
2022-07-29T01:26:02.115Z,100902.73
2022-07-29T01:28:46.306Z,100902.73
2022-07-29T01:31:25.071Z,100902.55
2022-07-29T01:34:02.942Z,100899.91
2022-07-29T01:36:38.629Z,100897.27
2022-07-29T01:39:21.472Z,100898.85
2022-07-29T01:42:00.824Z,100901.67
2022-07-29T01:44:39.014Z,100896.23
2022-07-29T01:47:15.355Z,100893.41
2022-07-29T01:49:52.134Z,100892.36
2022-07-29T01:52:27.555Z,100887.98
2022-07-29T01:55:03.150Z,100885.35
2022-07-29T01:57:35.158Z,100883.94
2022-07-29T02:00:05.780Z,100884.09
2022-07-29T02:02:36.621Z,100883.58
2022-07-29T02:05:09.569Z,100880.92
2022-07-29T02:07:39.203Z,100876.19
2022-07-29T02:10:09.664Z,100876.90
2022-07-29T02:12:40.425Z,100873.20
2022-07-29T02:15:11.011Z,100877.96
2022-07-29T02:18:02.507Z,100878.32
2022-07-29T02:20:32.419Z,100883.76
2022-07-29T02:23:02.973Z,100884.31
2022-07-29T02:25:37.506Z,100883.46
2022-07-29T02:28:07.948Z,100882.21
2022-07-29T02:30:43.382Z,100880.48
2022-07-29T02:33:15.934Z,100875.55
2022-07-29T02:35:46.574Z,100878.89
2022-07-29T02:38:36.885Z,100873.78
2022-07-29T02:41:12.680Z,100870.80
2022-07-29T02:43:44.735Z,100870.09
2022-07-29T02:46:28.390Z,100865.70
2022-07-29T02:49:05.722Z,100866.77
2022-07-29T02:51:52.315Z,100866.38
2022-07-29T02:54:39.354Z,100866.21
2022-07-29T02:57:19.628Z,100867.94
2022-07-29T02:59:51.418Z,100867.23
2022-07-29T03:02:21.922Z,100868.64
2022-07-29T03:04:53.172Z,100867.41
2022-07-29T03:07:22.293Z,100864.45
2022-07-29T03:09:51.389Z,100868.52
2022-07-29T03:12:20.526Z,100867.63
2022-07-29T03:14:49.989Z,100869.91
2022-07-29T03:17:18.666Z,100874.67
2022-07-29T03:19:47.592Z,100871.68
2022-07-29T03:22:16.263Z,100871.51
2022-07-29T03:24:47.580Z,100869.05
2022-07-29T03:27:15.944Z,100865.70
2022-07-29T03:29:49.907Z,100864.13
2022-07-29T03:32:23.798Z,100861.66
2022-07-29T03:34:53.827Z,100864.11
2022-07-29T03:37:22.343Z,100859.73
2022-07-29T03:39:52.995Z,100859.03
2022-07-29T03:42:25.382Z,100861.13
2022-07-29T03:44:55.586Z,100860.43
2022-07-29T03:47:43.568Z,100859.20
2022-07-29T03:50:17.308Z,100858.50
2022-07-29T03:52:45.694Z,100860.08
2022-07-29T03:55:15.394Z,100856.56
2022-07-29T03:57:44.289Z,100856.91
2022-07-29T04:00:14.029Z,100854.27
2022-07-29T04:02:48.163Z,100855.48
2022-07-29T04:05:18.463Z,100848.98
2022-07-29T04:07:48.805Z,100845.46
2022-07-29T04:10:25.203Z,100845.11
2022-07-29T04:13:01.594Z,100841.58
2022-07-29T04:15:30.986Z,100838.61
2022-07-29T04:18:00.724Z,100839.31
2022-07-29T04:20:29.441Z,100839.69
2022-07-29T04:22:57.887Z,100840.73
2022-07-29T04:25:26.119Z,100840.73
2022-07-29T04:28:04.251Z,100840.37
2022-07-29T04:30:34.684Z,100839.66
2022-07-29T04:33:04.496Z,100840.00
2022-07-29T04:35:38.601Z,100844.04
2022-07-29T04:38:15.937Z,100850.52
2022-07-29T04:40:47.130Z,100855.09
2022-07-29T04:43:22.465Z,100859.11
2022-07-29T04:45:51.779Z,100858.05
2022-07-29T04:48:22.917Z,100861.05
2022-07-29T04:50:55.041Z,100858.40
2022-07-29T04:53:23.695Z,100857.70
2022-07-29T04:55:52.523Z,100856.80
2022-07-29T04:58:20.960Z,100858.36
2022-07-29T05:00:49.225Z,100859.95
2022-07-29T05:03:18.682Z,100858.88
2022-07-29T05:05:47.163Z,100856.22
2022-07-29T05:08:15.482Z,100856.71
2022-07-29T05:10:43.810Z,100853.69
2022-07-29T05:13:12.541Z,100854.90
2022-07-29T05:15:41.149Z,100854.67
2022-07-29T05:18:09.412Z,100857.23
2022-07-29T05:20:38.273Z,100861.55
2022-07-29T05:23:06.882Z,100862.37
2022-07-29T05:25:43.132Z,100864.25
2022-07-29T05:28:13.931Z,100860.09
2022-07-29T05:30:42.420Z,100863.48
2022-07-29T05:33:34.227Z,100863.71
2022-07-29T05:36:00.908Z,100861.93
2022-07-29T05:38:30.363Z,100860.31
2022-07-29T05:41:00.421Z,100858.02
2022-07-29T05:43:31.472Z,100858.40
2022-07-29T05:46:00.451Z,100864.56
2022-07-29T05:48:29.376Z,100859.42
2022-07-29T05:50:57.713Z,100858.83
2022-07-29T05:53:26.037Z,100853.88
2022-07-29T05:55:54.615Z,100853.27
2022-07-29T05:58:22.837Z,100856.02
2022-07-29T06:00:51.225Z,100853.59
2022-07-29T06:03:19.552Z,100848.45
2022-07-29T06:05:47.793Z,100847.77
2022-07-29T06:08:16.493Z,100844.73
2022-07-29T06:10:44.872Z,100852.98
2022-07-29T06:13:14.026Z,100854.63
2022-07-29T06:15:42.873Z,100853.29
2022-07-29T06:18:12.006Z,100853.07
2022-07-29T06:20:40.327Z,100852.73
2022-07-29T06:23:09.114Z,100852.69
2022-07-29T06:25:37.976Z,100856.12
2022-07-29T06:28:06.294Z,100851.63
2022-07-29T06:30:34.799Z,100847.98
2022-07-29T06:33:04.658Z,100849.81
2022-07-29T06:35:38.867Z,100846.88
2022-07-29T06:38:14.914Z,100853.29
2022-07-29T06:41:07.140Z,100850.15
2022-07-29T06:43:50.207Z,100853.27
2022-07-29T06:46:21.139Z,100851.29
2022-07-29T06:48:50.722Z,100851.54
2022-07-29T06:51:22.265Z,100851.35
2022-07-29T06:53:58.315Z,100847.83
2022-07-29T06:56:38.256Z,100848.56
2022-07-29T06:59:09.554Z,100848.29
2022-07-29T07:01:38.478Z,100849.70
2022-07-29T07:04:07.505Z,100849.80
2022-07-29T07:06:36.286Z,100851.82
2022-07-29T07:09:05.384Z,100848.89
2022-07-29T07:11:33.692Z,100847.55
2022-07-29T07:14:03.801Z,100848.83
2022-07-29T07:16:33.424Z,100844.10
2022-07-29T07:19:02.536Z,100847.50
2022-07-29T07:21:31.509Z,100841.38
2022-07-29T07:24:01.110Z,100842.16
2022-07-29T07:26:29.843Z,100846.28
2022-07-29T07:28:58.913Z,100845.25
2022-07-29T07:31:27.266Z,100841.05
2022-07-29T07:33:55.678Z,100844.71
2022-07-29T07:36:24.814Z,100843.52
2022-07-29T07:38:53.039Z,100848.34
2022-07-29T07:41:22.287Z,100843.61
2022-07-29T07:43:50.717Z,100842.40
2022-07-29T07:46:19.065Z,100841.32
2022-07-29T07:48:47.412Z,100843.49
2022-07-29T07:51:16.266Z,100842.67
2022-07-29T07:53:45.895Z,100839.85
2022-07-29T07:56:14.059Z,100840.92
2022-07-29T07:58:42.561Z,100840.08
2022-07-29T08:01:11.453Z,100838.30
2022-07-29T08:03:40.491Z,100835.77
2022-07-29T08:06:09.205Z,100834.98
2022-07-29T08:08:37.453Z,100834.83
2022-07-29T08:11:09.507Z,100838.61
2022-07-29T08:13:39.714Z,100838.52
2022-07-29T08:16:16.701Z,100837.52
2022-07-29T08:18:46.837Z,100835.73
2022-07-29T08:21:16.740Z,100836.06
2022-07-29T08:23:52.776Z,100834.44
2022-07-29T08:26:23.905Z,100836.49
2022-07-29T08:28:52.191Z,100838.23
2022-07-29T08:31:20.557Z,100842.11
2022-07-29T08:33:48.922Z,100841.21
2022-07-29T08:36:17.148Z,100837.34
2022-07-29T08:38:45.473Z,100836.80
2022-07-29T08:41:14.272Z,100832.98
2022-07-29T08:43:42.980Z,100833.45
2022-07-29T08:46:11.368Z,100834.80
2022-07-29T08:48:40.545Z,100832.54
2022-07-29T08:51:10.537Z,100831.40
2022-07-29T08:53:39.365Z,100830.47
2022-07-29T08:56:08.291Z,100825.69
2022-07-29T08:58:38.297Z,100823.45
2022-07-29T09:01:12.243Z,100826.73
2022-07-29T09:03:41.982Z,100822.64
2022-07-29T09:06:14.672Z,100823.52
2022-07-29T09:08:43.547Z,100817.61
2022-07-29T09:11:14.046Z,100818.05
2022-07-29T09:13:42.573Z,100824.95
2022-07-29T09:16:11.072Z,100825.19
2022-07-29T09:18:45.339Z,100820.96
2022-07-29T09:21:36.043Z,100828.15
2022-07-29T09:24:13.135Z,100826.95
2022-07-29T09:26:44.231Z,100827.20
2022-07-29T09:29:16.170Z,100824.70
2022-07-29T09:31:47.015Z,100817.20
2022-07-29T09:34:17.674Z,100819.61
2022-07-29T09:36:51.044Z,100824.52
2022-07-29T09:39:35.947Z,100823.70
2022-07-29T09:42:07.251Z,100819.31
2022-07-29T09:44:44.337Z,100823.73
2022-07-29T09:47:13.375Z,100819.20
2022-07-29T09:50:01.163Z,100818.42
2022-07-29T09:52:31.457Z,100813.92
2022-07-29T09:55:10.502Z,100811.94
2022-07-29T09:57:47.860Z,100815.83
2022-07-29T10:00:20.069Z,100810.89
2022-07-29T10:02:49.025Z,100811.33
2022-07-29T10:05:26.333Z,100812.86
2022-07-29T10:07:57.720Z,100810.47
2022-07-29T10:10:32.742Z,100811.48
2022-07-29T10:13:08.779Z,100811.63
2022-07-29T10:15:42.151Z,100810.23
2022-07-29T10:18:12.569Z,100813.30
2022-07-29T10:20:41.850Z,100812.04
2022-07-29T10:23:11.111Z,100807.06
2022-07-29T10:25:39.855Z,100804.80
2022-07-29T10:28:08.173Z,100804.90
2022-07-29T10:30:41.120Z,100804.27
2022-07-29T10:33:31.803Z,100804.06
2022-07-29T10:36:18.641Z,100801.76
2022-07-29T10:38:51.377Z,100803.75
2022-07-29T10:41:31.988Z,100802.17
2022-07-29T10:44:13.515Z,100800.35
2022-07-29T10:46:47.052Z,100799.96
2022-07-29T10:49:25.700Z,100796.89
2022-07-29T10:52:08.414Z,100793.52
2022-07-29T10:54:43.733Z,100792.15
2022-07-29T10:57:53.412Z,100788.08
2022-07-29T11:00:29.942Z,100797.44
2022-07-29T11:02:59.521Z,100794.38
2022-07-29T11:05:31.995Z,100790.47
2022-07-29T11:08:21.093Z,100789.29
2022-07-29T11:14:10.550Z,100793.98
2022-07-29T11:17:01.611Z,100795.48
2022-07-29T11:19:30.983Z,100793.48
2022-07-29T11:21:59.963Z,100794.09
2022-07-29T11:24:32.412Z,100788.37
2022-07-29T11:27:19.832Z,100785.19
2022-07-29T11:29:56.039Z,100783.54
2022-07-29T11:32:29.394Z,100780.89
2022-07-29T11:35:17.382Z,100779.45
2022-07-29T11:37:52.698Z,100779.43
2022-07-29T11:40:24.312Z,100779.23
2022-07-29T11:42:53.343Z,100776.17
2022-07-29T11:45:44.412Z,100776.84
2022-07-29T11:48:31.898Z,100775.21
2022-07-29T11:51:01.269Z,100770.83
2022-07-29T11:53:32.935Z,100766.13
2022-07-29T11:56:02.793Z,100770.13
2022-07-29T11:58:32.975Z,100769.54
2022-07-29T12:04:04.958Z,100769.06
2022-07-29T12:06:36.328Z,100763.98
2022-07-29T12:09:14.379Z,100759.36
2022-07-29T12:11:45.062Z,100762.88
2022-07-29T12:14:33.898Z,100758.52
2022-07-29T12:17:02.808Z,100758.36
2022-07-29T12:19:44.620Z,100753.52
2022-07-29T12:22:13.090Z,100761.13
2022-07-29T12:24:45.827Z,100754.73
2022-07-29T12:27:19.383Z,100755.84
2022-07-29T12:30:03.629Z,100756.14
2022-07-29T12:32:43.731Z,100757.30
2022-07-29T12:35:20.682Z,100759.19
2022-07-29T12:37:53.902Z,100756.83
2022-07-29T12:40:24.645Z,100760.97
2022-07-29T12:43:14.924Z,100756.55
2022-07-29T12:45:47.333Z,100754.79
2022-07-29T12:48:16.381Z,100756.20
2022-07-29T12:51:00.717Z,100755.67
2022-07-29T12:53:29.934Z,100752.34
2022-07-29T12:56:07.985Z,100752.37
2022-07-29T12:58:44.509Z,100756.43
2022-07-29T13:01:17.737Z,100752.86
2022-07-29T13:03:59.771Z,100748.50
2022-07-29T13:06:41.439Z,100742.59
2022-07-29T13:09:21.054Z,100744.64
2022-07-29T13:11:53.045Z,100740.68
2022-07-29T13:14:38.185Z,100743.77
2022-07-29T13:17:09.913Z,100737.22
2022-07-29T13:19:52.536Z,100740.14
2022-07-29T13:22:23.868Z,100742.23
2022-07-29T13:24:54.041Z,100733.91
2022-07-29T13:27:28.641Z,100736.15
2022-07-29T13:29:58.962Z,100728.75
2022-07-29T13:32:29.372Z,100726.48
2022-07-29T13:35:00.019Z,100725.61
2022-07-29T13:37:30.900Z,100726.02
2022-07-29T13:40:00.456Z,100724.89
2022-07-29T13:42:29.086Z,100727.80
2022-07-29T13:44:57.385Z,100730.50
2022-07-29T13:47:32.099Z,100724.27
2022-07-29T13:50:04.511Z,100725.87
2022-07-29T13:52:35.853Z,100721.05
2022-07-29T13:55:06.207Z,100722.02
2022-07-29T13:57:34.794Z,100724.94
2022-07-29T14:00:04.265Z,100723.76
2022-07-29T14:02:34.212Z,100728.14
2022-07-29T14:05:07.672Z,100718.52
2022-07-29T14:07:39.891Z,100717.27
2022-07-29T14:10:09.322Z,100711.04
2022-07-29T14:12:37.963Z,100706.73
2022-07-29T14:15:06.918Z,100704.60
2022-07-29T14:17:35.774Z,100705.80
2022-07-29T14:20:05.589Z,100701.11
2022-07-29T14:22:37.806Z,100701.09
2022-07-29T14:25:15.055Z,100701.01
2022-07-29T14:27:44.937Z,100698.77
2022-07-29T14:30:13.890Z,100694.53
2022-07-29T14:32:42.256Z,100689.73
2022-07-29T14:35:10.748Z,100692.63
2022-07-29T14:37:49.237Z,100691.81
2022-07-29T14:40:17.649Z,100688.39
2022-07-29T14:42:46.144Z,100681.02
2022-07-29T14:45:14.477Z,100681.21
2022-07-29T14:47:42.780Z,100673.08
2022-07-29T14:50:12.064Z,100672.74
2022-07-29T14:52:40.691Z,100670.27
2022-07-29T14:55:33.848Z,100667.45
2022-07-29T14:58:26.941Z,100666.28
2022-07-29T15:00:56.311Z,100666.42
2022-07-29T15:03:24.836Z,100661.57
2022-07-29T15:05:53.440Z,100668.98
2022-07-29T15:08:22.126Z,100665.70
2022-07-29T15:10:53.480Z,100661.19
2022-07-29T15:13:21.852Z,100659.72
2022-07-29T15:15:57.042Z,100666.54
2022-07-29T15:18:31.275Z,100665.29
2022-07-29T15:21:01.974Z,100664.89
2022-07-29T15:23:43.032Z,100660.77
2022-07-29T15:26:24.835Z,100668.18
2022-07-29T15:28:53.137Z,100667.29
2022-07-29T15:31:21.511Z,100665.48
2022-07-29T15:33:51.583Z,100666.05
2022-07-29T15:36:50.987Z,100670.31
2022-07-29T15:39:11.163Z,100671.23
2022-07-29T15:41:39.523Z,100667.86
2022-07-29T15:44:07.859Z,100664.66
2022-07-29T15:46:55.121Z,100664.83
2022-07-29T15:49:24.074Z,100664.27
2022-07-29T15:52:01.633Z,100665.02
2022-07-29T15:54:32.749Z,100667.06
2022-07-29T15:57:01.756Z,100664.27
2022-07-29T15:59:33.370Z,100657.58
2022-07-29T16:02:04.484Z,100650.52
2022-07-29T16:04:33.205Z,100649.84
2022-07-29T16:07:08.189Z,100647.99
2022-07-29T16:09:36.723Z,100647.36
2022-07-29T16:12:05.353Z,100647.63
2022-07-29T16:14:51.399Z,100645.09
2022-07-29T16:17:21.379Z,100643.06
2022-07-29T16:19:52.278Z,100637.16
2022-07-29T16:22:20.548Z,100638.91
2022-07-29T16:24:48.778Z,100640.30
2022-07-29T16:27:17.410Z,100637.75
2022-07-29T16:29:46.992Z,100638.44
2022-07-29T16:32:15.262Z,100640.52
2022-07-29T16:34:51.295Z,100636.90
2022-07-29T16:37:19.627Z,100633.73
2022-07-29T16:39:47.900Z,100629.66
2022-07-29T16:42:30.994Z,100630.61
2022-07-29T16:45:05.395Z,100632.77
2022-07-29T16:47:33.951Z,100634.73
2022-07-29T16:50:02.991Z,100629.92
2022-07-29T16:52:31.297Z,100626.73
2022-07-29T16:55:00.011Z,100628.54
2022-07-29T16:57:28.346Z,100631.80
2022-07-29T16:59:56.653Z,100628.27
2022-07-29T17:02:25.238Z,100632.98
2022-07-29T17:04:53.494Z,100633.84
2022-07-29T17:07:21.736Z,100627.45
2022-07-29T17:09:55.119Z,100627.89
2022-07-29T17:12:24.884Z,100620.13
2022-07-29T17:14:53.296Z,100618.13
2022-07-29T17:17:38.768Z,100620.59
2022-07-29T17:20:10.164Z,100619.02
2022-07-29T17:22:40.014Z,100615.42
2022-07-29T17:25:10.386Z,100618.05
2022-07-29T17:27:42.765Z,100620.71
2022-07-29T17:30:11.423Z,100617.08
2022-07-29T17:32:40.251Z,100617.94
2022-07-29T17:35:52.245Z,100612.23
2022-07-29T17:38:20.819Z,100610.98
2022-07-29T17:40:50.564Z,100615.90
2022-07-29T17:43:18.886Z,100613.17
2022-07-29T17:45:50.338Z,100611.19
2022-07-29T17:48:19.631Z,100611.08
2022-07-29T17:50:49.104Z,100608.59
2022-07-29T17:53:17.859Z,100610.02
2022-07-29T17:55:48.945Z,100614.53
2022-07-29T17:58:18.995Z,100613.09
2022-07-29T18:00:48.608Z,100608.63
2022-07-29T18:03:17.462Z,100610.44
2022-07-29T18:05:47.344Z,100610.33
2022-07-29T18:08:17.633Z,100608.70
2022-07-29T18:10:48.732Z,100611.36
2022-07-29T18:13:18.154Z,100611.02
2022-07-29T18:15:47.390Z,100604.83
2022-07-29T18:18:22.880Z,100608.13
2022-07-29T18:20:51.512Z,100608.02
2022-07-29T18:23:19.855Z,100609.04
2022-07-29T18:25:48.661Z,100611.67
2022-07-29T18:28:17.269Z,100612.05
2022-07-29T18:30:46.902Z,100612.99
2022-07-29T18:33:21.845Z,100609.29
2022-07-29T18:36:11.037Z,100611.46
2022-07-29T18:38:52.286Z,100614.24
2022-07-29T18:41:20.750Z,100613.77
2022-07-29T18:43:49.182Z,100617.52
2022-07-29T18:46:17.582Z,100616.69
2022-07-29T18:48:46.893Z,100616.36
2022-07-29T18:51:15.404Z,100621.70
2022-07-29T18:53:44.679Z,100624.02
2022-07-29T18:56:14.335Z,100625.87
2022-07-29T18:58:42.786Z,100625.16
2022-07-29T19:01:16.115Z,100626.08
2022-07-29T19:03:45.537Z,100627.35
2022-07-29T19:06:13.877Z,100631.27
2022-07-29T19:08:42.252Z,100629.86
2022-07-29T19:11:13.040Z,100629.58
2022-07-29T19:13:50.268Z,100637.09
2022-07-29T19:16:19.006Z,100641.44
2022-07-29T19:18:50.203Z,100644.33
2022-07-29T19:21:19.650Z,100649.73
2022-07-29T19:24:06.394Z,100654.39
2022-07-29T19:26:44.256Z,100659.04
2022-07-29T19:29:13.749Z,100665.55
2022-07-29T19:31:42.780Z,100668.40
2022-07-29T19:34:11.371Z,100670.21
2022-07-29T19:36:48.946Z,100672.70
2022-07-29T19:39:17.541Z,100671.30
2022-07-29T19:41:48.719Z,100675.89
2022-07-29T19:44:26.086Z,100676.07
2022-07-29T19:47:03.685Z,100679.63
2022-07-29T19:49:46.481Z,100676.07
2022-07-29T19:52:14.835Z,100674.27
2022-07-29T19:54:43.357Z,100673.14
2022-07-29T19:57:12.803Z,100676.94
2022-07-29T19:59:42.500Z,100675.39
2022-07-29T20:02:13.385Z,100672.63
2022-07-29T20:04:41.885Z,100670.73
2022-07-29T20:07:10.418Z,100672.69
2022-07-29T20:09:41.472Z,100671.66
2022-07-29T20:12:11.237Z,100670.41
2022-07-29T20:14:39.744Z,100667.89
2022-07-29T20:17:08.238Z,100664.65
2022-07-29T20:19:36.788Z,100666.86
2022-07-29T20:22:05.824Z,100662.17
2022-07-29T20:24:34.292Z,100663.32
2022-07-29T20:27:02.878Z,100661.83
2022-07-29T20:29:42.628Z,100664.75
2022-07-29T20:32:12.660Z,100667.38
2022-07-29T20:34:43.778Z,100666.95
2022-07-29T20:37:14.740Z,100671.11
2022-07-29T20:39:43.137Z,100676.28
2022-07-29T20:42:11.580Z,100683.83
2022-07-29T20:44:40.149Z,100681.16
2022-07-29T20:47:09.963Z,100680.11
2022-07-29T20:49:38.619Z,100681.34
2022-07-29T20:52:08.906Z,100686.41
2022-07-29T20:54:37.408Z,100685.23
2022-07-29T20:57:05.810Z,100689.53
2022-07-29T20:59:45.778Z,100691.90
2022-07-29T21:02:14.496Z,100690.89
2022-07-29T21:04:48.066Z,100687.75
2022-07-29T21:07:20.261Z,100681.44
2022-07-29T21:09:49.468Z,100683.77
2022-07-29T21:12:19.311Z,100678.91
2022-07-29T21:14:49.070Z,100680.39
2022-07-29T21:18:27.351Z,100679.20
2022-07-29T21:20:59.619Z,100679.92
2022-07-29T21:23:29.008Z,100688.17
2022-07-29T21:25:57.722Z,100689.17
2022-07-29T21:28:41.868Z,100689.27
2022-07-29T21:31:18.107Z,100689.25
2022-07-29T21:33:52.016Z,100688.40
2022-07-29T21:36:48.518Z,100681.34
2022-07-29T21:39:19.090Z,100681.42
2022-07-29T21:41:47.664Z,100683.98
2022-07-29T21:44:16.142Z,100687.05
2022-07-29T21:46:52.693Z,100684.94
2022-07-29T21:49:22.772Z,100684.04
2022-07-29T21:51:51.430Z,100683.52
2022-07-29T21:54:25.958Z,100683.14
2022-07-29T21:56:56.846Z,100683.46
2022-07-29T21:59:26.690Z,100679.68
2022-07-29T22:01:55.264Z,100678.23
2022-07-29T22:04:24.314Z,100686.36
2022-07-29T22:06:52.886Z,100682.64
2022-07-29T22:09:21.277Z,100683.87
2022-07-29T22:11:49.528Z,100687.06
2022-07-29T22:14:19.261Z,100689.23
2022-07-29T22:16:47.889Z,100693.33
2022-07-29T22:19:16.249Z,100695.83
2022-07-29T22:21:45.280Z,100693.34
2022-07-29T22:24:14.030Z,100687.00
2022-07-29T22:26:42.367Z,100687.19
2022-07-29T22:29:11.958Z,100683.67
2022-07-29T22:31:40.210Z,100683.85
2022-07-29T22:34:13.838Z,100681.56
2022-07-29T22:36:52.005Z,100682.10
2022-07-29T22:39:20.955Z,100680.34
2022-07-29T22:41:49.927Z,100679.45
2022-07-29T22:44:18.521Z,100680.86
2022-07-29T22:46:46.791Z,100685.27
2022-07-29T22:49:15.235Z,100682.59
2022-07-29T22:51:43.908Z,100682.20
2022-07-29T22:54:12.186Z,100679.52
2022-07-29T22:56:40.715Z,100677.92
2022-07-29T22:59:09.282Z,100674.22
2022-07-29T23:01:38.307Z,100672.83
2022-07-29T23:04:07.654Z,100673.55
2022-07-29T23:06:36.176Z,100674.09
2022-07-29T23:09:04.673Z,100670.56
2022-07-29T23:11:33.059Z,100671.81
2022-07-29T23:14:01.538Z,100675.55
2022-07-29T23:16:29.985Z,100676.63
2022-07-29T23:18:58.510Z,100674.35
2022-07-29T23:21:26.990Z,100672.61
2022-07-29T23:23:55.376Z,100673.39
2022-07-29T23:26:24.180Z,100670.08
2022-07-29T23:28:52.716Z,100669.73
2022-07-29T23:31:21.229Z,100664.08
2022-07-29T23:33:49.613Z,100663.52
2022-07-29T23:36:20.239Z,100661.07
2022-07-29T23:38:49.039Z,100659.66
2022-07-29T23:41:17.382Z,100658.60
2022-07-29T23:43:45.651Z,100658.45
2022-07-29T23:46:14.265Z,100659.73
2022-07-29T23:48:44.018Z,100660.99
2022-07-29T23:51:12.639Z,100657.71
2022-07-29T23:53:53.949Z,100656.52
2022-07-29T23:56:22.819Z,100652.31
2022-07-29T23:58:51.142Z,100656.61
